AMX420 KMIA-MMUN
Flight info
| Callsign | AMX420 |
|---|---|
| Flight time | 1h 28m |
| Altitude | 38000 |
| Route | GLADZ4 LULLS Y196 CANOA UB879 NOSAT NOSAT1B |
| Aircraft | B38M/M-SDE1FGHILORVWXY/HB1 |
Departure
| Time | 2026-05-03 21:44 |
|---|---|
| Airport | Miami International Airport (KMIA) |
Arrival
| Time | 2026-05-03 23:12 |
|---|---|
| Airport | Cancún International Airport (MMUN) |
| Time | Latitude | Longitude | Altitude | Speed | Heading |
|---|---|---|---|---|---|
| 2026-05-03 20:56 | 25.79028 | -80.27894 | 18 ft | 0 kts | 356° |
| 2026-05-03 21:32 | 25.79014 | -80.27893 | 20 ft | 4 kts | 354° |
| 2026-05-03 21:32 | 25.78987 | -80.27890 | 20 ft | 4 kts | 357° |
| 2026-05-03 21:32 | 25.78963 | -80.27889 | 19 ft | 4 kts | 351° |
| 2026-05-03 21:33 | 25.78943 | -80.27878 | 19 ft | 4 kts | 297° |
| 2026-05-03 21:33 | 25.78939 | -80.27851 | 19 ft | 3 kts | 266° |
| 2026-05-03 21:33 | 25.78940 | -80.27844 | 20 ft | 1 kts | 266° |
| 2026-05-03 21:35 | 25.78937 | -80.27886 | 20 ft | 11 kts | 267° |
| 2026-05-03 21:36 | 25.78938 | -80.27966 | 18 ft | 12 kts | 260° |
| 2026-05-03 21:36 | 25.78928 | -80.28054 | 21 ft | 14 kts | 289° |
| 2026-05-03 21:36 | 25.78957 | -80.28117 | 18 ft | 4 kts | 297° |
| 2026-05-03 21:36 | 25.78991 | -80.28187 | 18 ft | 10 kts | 300° |
| 2026-05-03 21:37 | 25.79020 | -80.28242 | 18 ft | 7 kts | 301° |
| 2026-05-03 21:37 | 25.79053 | -80.28303 | 18 ft | 8 kts | 300° |
| 2026-05-03 21:37 | 25.79084 | -80.28363 | 18 ft | 8 kts | 300° |
| 2026-05-03 21:37 | 25.79113 | -80.28416 | 17 ft | 13 kts | 304° |
| 2026-05-03 21:38 | 25.79155 | -80.28483 | 17 ft | 8 kts | 305° |
| 2026-05-03 21:38 | 25.79195 | -80.28553 | 17 ft | 11 kts | 300° |
| 2026-05-03 21:38 | 25.79232 | -80.28627 | 17 ft | 11 kts | 298° |
| 2026-05-03 21:38 | 25.79267 | -80.28695 | 17 ft | 10 kts | 301° |
| 2026-05-03 21:39 | 25.79311 | -80.28777 | 17 ft | 12 kts | 300° |
| 2026-05-03 21:39 | 25.79350 | -80.28852 | 17 ft | 11 kts | 299° |
| 2026-05-03 21:39 | 25.79384 | -80.28922 | 17 ft | 9 kts | 299° |
| 2026-05-03 21:39 | 25.79418 | -80.28989 | 17 ft | 13 kts | 299° |
| 2026-05-03 21:40 | 25.79480 | -80.29109 | 17 ft | 21 kts | 302° |
| 2026-05-03 21:40 | 25.79548 | -80.29240 | 18 ft | 15 kts | 300° |
| 2026-05-03 21:40 | 25.79596 | -80.29334 | 18 ft | 15 kts | 299° |
| 2026-05-03 21:40 | 25.79640 | -80.29419 | 17 ft | 10 kts | 300° |
| 2026-05-03 21:41 | 25.79670 | -80.29478 | 17 ft | 14 kts | 300° |
| 2026-05-03 21:41 | 25.79739 | -80.29615 | 17 ft | 22 kts | 299° |
| 2026-05-03 21:41 | 25.79788 | -80.29711 | 17 ft | 13 kts | 299° |
| 2026-05-03 21:41 | 25.79836 | -80.29804 | 16 ft | 14 kts | 299° |
| 2026-05-03 21:42 | 25.79879 | -80.29890 | 17 ft | 12 kts | 298° |
| 2026-05-03 21:42 | 25.79924 | -80.29975 | 16 ft | 9 kts | 299° |
| 2026-05-03 21:42 | 25.79957 | -80.30042 | 16 ft | 9 kts | 298° |
| 2026-05-03 21:42 | 25.80008 | -80.30140 | 17 ft | 9 kts | 306° |
| 2026-05-03 21:43 | 25.80057 | -80.30134 | 17 ft | 16 kts | 54° |
| 2026-05-03 21:43 | 25.80080 | -80.29918 | 15 ft | 52 kts | 87° |
| 2026-05-03 21:43 | 25.80110 | -80.29228 | 19 ft | 124 kts | 87° |
| 2026-05-03 21:43 | 25.80164 | -80.28057 | 140 ft | 170 kts | 86° |
| 2026-05-03 21:44 | 25.80292 | -80.26697 | 605 ft | 190 kts | 82° |
| 2026-05-03 21:44 | 25.80414 | -80.25231 | 1423 ft | 191 kts | 86° |
| 2026-05-03 21:44 | 25.80489 | -80.23702 | 2075 ft | 208 kts | 88° |
| 2026-05-03 21:44 | 25.80521 | -80.21988 | 2552 ft | 236 kts | 89° |
| 2026-05-03 21:45 | 25.80560 | -80.20079 | 3174 ft | 258 kts | 88° |
| 2026-05-03 21:45 | 25.81011 | -80.18097 | 3807 ft | 276 kts | 59° |
| 2026-05-03 21:45 | 25.82325 | -80.16561 | 4463 ft | 279 kts | 30° |
| 2026-05-03 21:45 | 25.84129 | -80.15879 | 4659 ft | 274 kts | 1° |
| 2026-05-03 21:46 | 25.86010 | -80.15843 | 4823 ft | 276 kts | 358° |
| 2026-05-03 21:46 | 25.87935 | -80.15781 | 4933 ft | 277 kts | 359° |
| 2026-05-03 21:46 | 25.89848 | -80.15905 | 4970 ft | 273 kts | 342° |
| 2026-05-03 21:46 | 25.91658 | -80.16532 | 5014 ft | 273 kts | 339° |
| 2026-05-03 21:47 | 25.93468 | -80.17155 | 5007 ft | 273 kts | 340° |
| 2026-05-03 21:47 | 25.95285 | -80.17784 | 4993 ft | 273 kts | 339° |
| 2026-05-03 21:47 | 25.97055 | -80.18511 | 4973 ft | 269 kts | 326° |
| 2026-05-03 21:47 | 25.98374 | -80.19912 | 4997 ft | 263 kts | 299° |
| 2026-05-03 21:48 | 25.99010 | -80.21793 | 5006 ft | 261 kts | 278° |
| 2026-05-03 21:48 | 25.99293 | -80.23753 | 5041 ft | 261 kts | 277° |
| 2026-05-03 21:48 | 25.99561 | -80.25751 | 5052 ft | 263 kts | 277° |
| 2026-05-03 21:48 | 25.99735 | -80.27765 | 5780 ft | 258 kts | 269° |
| 2026-05-03 21:49 | 25.99728 | -80.29761 | 6867 ft | 260 kts | 269° |
| 2026-05-03 21:49 | 25.99728 | -80.31786 | 7803 ft | 263 kts | 269° |
| 2026-05-03 21:49 | 25.99731 | -80.33829 | 8784 ft | 266 kts | 269° |
| 2026-05-03 21:49 | 25.99740 | -80.35903 | 9785 ft | 269 kts | 269° |
| 2026-05-03 21:50 | 25.99748 | -80.37991 | 10655 ft | 272 kts | 269° |
| 2026-05-03 21:50 | 25.99758 | -80.40109 | 11514 ft | 275 kts | 269° |
| 2026-05-03 21:50 | 25.99612 | -80.42198 | 12349 ft | 277 kts | 253° |
| 2026-05-03 21:50 | 25.98736 | -80.44098 | 13217 ft | 280 kts | 234° |
| 2026-05-03 21:51 | 25.97550 | -80.45839 | 14050 ft | 285 kts | 234° |
| 2026-05-03 21:51 | 25.96354 | -80.47592 | 15023 ft | 283 kts | 235° |
| 2026-05-03 21:51 | 25.95141 | -80.49343 | 15560 ft | 291 kts | 234° |
| 2026-05-03 21:51 | 25.93902 | -80.51115 | 15633 ft | 291 kts | 234° |
| 2026-05-03 21:52 | 25.92654 | -80.52890 | 15755 ft | 292 kts | 234° |
| 2026-05-03 21:52 | 25.91403 | -80.54666 | 15909 ft | 292 kts | 234° |
| 2026-05-03 21:52 | 25.90148 | -80.56442 | 15991 ft | 292 kts | 234° |
| 2026-05-03 21:52 | 25.88910 | -80.58192 | 16041 ft | 292 kts | 234° |
| 2026-05-03 21:53 | 25.87659 | -80.59967 | 15985 ft | 292 kts | 234° |
| 2026-05-03 21:53 | 25.86408 | -80.61735 | 16000 ft | 291 kts | 234° |
| 2026-05-03 21:53 | 25.85155 | -80.63502 | 15975 ft | 291 kts | 234° |
| 2026-05-03 21:53 | 25.83905 | -80.65266 | 15971 ft | 291 kts | 234° |
| 2026-05-03 21:54 | 25.82652 | -80.67034 | 15990 ft | 292 kts | 234° |
| 2026-05-03 21:54 | 25.81408 | -80.68788 | 15808 ft | 288 kts | 234° |
| 2026-05-03 21:54 | 25.80170 | -80.70534 | 15584 ft | 285 kts | 234° |
| 2026-05-03 21:54 | 25.78961 | -80.72279 | 15722 ft | 289 kts | 239° |
| 2026-05-03 21:55 | 25.78189 | -80.74285 | 15841 ft | 288 kts | 253° |
| 2026-05-03 21:55 | 25.77589 | -80.76407 | 15958 ft | 289 kts | 253° |
| 2026-05-03 21:55 | 25.76990 | -80.78538 | 15987 ft | 289 kts | 253° |
| 2026-05-03 21:55 | 25.76399 | -80.80670 | 15988 ft | 289 kts | 253° |
| 2026-05-03 21:56 | 25.75810 | -80.82808 | 15992 ft | 289 kts | 253° |
| 2026-05-03 21:56 | 25.75224 | -80.84947 | 16094 ft | 292 kts | 253° |
| 2026-05-03 21:56 | 25.74633 | -80.87105 | 16860 ft | 292 kts | 253° |
| 2026-05-03 21:56 | 25.74043 | -80.89265 | 17699 ft | 294 kts | 253° |
| 2026-05-03 21:57 | 25.73449 | -80.91443 | 18423 ft | 296 kts | 253° |
| 2026-05-03 21:57 | 25.72864 | -80.93611 | 19442 ft | 292 kts | 252° |
| 2026-05-03 21:57 | 25.72320 | -80.95802 | 20357 ft | 298 kts | 256° |
| 2026-05-03 21:57 | 25.71858 | -80.98052 | 21394 ft | 297 kts | 253° |
| 2026-05-03 21:58 | 25.71436 | -80.99377 | 22045 ft | 298 kts | 250° |
| 2026-05-03 21:58 | 25.70883 | -81.01188 | 24551 ft | 214 kts | 252° |
| 2026-05-03 21:58 | 25.70444 | -81.02718 | 25438 ft | 211 kts | 252° |
| 2026-05-03 21:58 | 25.69997 | -81.04396 | 25059 ft | 243 kts | 253° |
| 2026-05-03 21:59 | 25.69522 | -81.06291 | 24887 ft | 265 kts | 253° |
| 2026-05-03 21:59 | 25.68965 | -81.08213 | 25291 ft | 263 kts | 251° |
| 2026-05-03 21:59 | 25.68374 | -81.10202 | 25324 ft | 280 kts | 252° |
| 2026-05-03 21:59 | 25.67764 | -81.12323 | 25317 ft | 297 kts | 252° |
| 2026-05-03 22:00 | 25.67129 | -81.14568 | 25344 ft | 313 kts | 252° |
| 2026-05-03 22:00 | 25.66469 | -81.16932 | 25371 ft | 329 kts | 252° |
| 2026-05-03 22:00 | 25.65782 | -81.19413 | 25381 ft | 345 kts | 252° |
| 2026-05-03 22:00 | 25.64999 | -81.21941 | 25403 ft | 359 kts | 245° |
| 2026-05-03 22:01 | 25.63536 | -81.24246 | 25416 ft | 377 kts | 228° |
| 2026-05-03 22:01 | 25.61378 | -81.26007 | 25518 ft | 395 kts | 214° |
| 2026-05-03 22:01 | 25.58981 | -81.27519 | 25894 ft | 397 kts | 215° |
| 2026-05-03 22:01 | 25.56582 | -81.29048 | 26302 ft | 399 kts | 215° |
| 2026-05-03 22:02 | 25.54160 | -81.30572 | 26712 ft | 401 kts | 215° |
| 2026-05-03 22:02 | 25.51722 | -81.32097 | 27083 ft | 404 kts | 215° |
| 2026-05-03 22:02 | 25.49269 | -81.33628 | 27472 ft | 406 kts | 215° |
| 2026-05-03 22:02 | 25.46798 | -81.35168 | 27834 ft | 409 kts | 215° |
| 2026-05-03 22:03 | 25.44313 | -81.36715 | 28209 ft | 411 kts | 215° |
| 2026-05-03 22:03 | 25.41824 | -81.38265 | 28548 ft | 414 kts | 215° |
| 2026-05-03 22:03 | 25.39351 | -81.39803 | 28895 ft | 416 kts | 215° |
| 2026-05-03 22:03 | 25.36851 | -81.41358 | 29221 ft | 418 kts | 215° |
| 2026-05-03 22:04 | 25.34310 | -81.42937 | 29569 ft | 420 kts | 215° |
| 2026-05-03 22:04 | 25.31756 | -81.44524 | 29902 ft | 423 kts | 215° |
| 2026-05-03 22:04 | 25.29183 | -81.46122 | 30208 ft | 425 kts | 215° |
| 2026-05-03 22:04 | 25.26603 | -81.47723 | 30492 ft | 426 kts | 215° |
| 2026-05-03 22:05 | 25.24008 | -81.49332 | 30790 ft | 428 kts | 215° |
| 2026-05-03 22:05 | 25.21411 | -81.50943 | 31103 ft | 429 kts | 215° |
| 2026-05-03 22:05 | 25.18855 | -81.52527 | 31474 ft | 428 kts | 215° |
| 2026-05-03 22:05 | 25.16263 | -81.54132 | 31884 ft | 426 kts | 215° |
| 2026-05-03 22:06 | 25.13681 | -81.55730 | 32301 ft | 425 kts | 215° |
| 2026-05-03 22:06 | 25.11107 | -81.57323 | 32725 ft | 423 kts | 215° |
| 2026-05-03 22:06 | 25.08543 | -81.58909 | 33120 ft | 422 kts | 214° |
| 2026-05-03 22:06 | 25.05986 | -81.60490 | 33491 ft | 421 kts | 214° |
| 2026-05-03 22:07 | 25.03433 | -81.62067 | 33894 ft | 420 kts | 214° |
| 2026-05-03 22:07 | 25.00885 | -81.63641 | 34265 ft | 419 kts | 214° |
| 2026-05-03 22:07 | 24.98356 | -81.65202 | 34628 ft | 418 kts | 214° |
| 2026-05-03 22:07 | 24.95823 | -81.66766 | 35002 ft | 416 kts | 215° |
| 2026-05-03 22:08 | 24.93299 | -81.68322 | 35345 ft | 415 kts | 215° |
| 2026-05-03 22:08 | 24.90817 | -81.69852 | 35698 ft | 413 kts | 215° |
| 2026-05-03 22:08 | 24.88323 | -81.71389 | 36101 ft | 410 kts | 215° |
| 2026-05-03 22:08 | 24.85838 | -81.72920 | 36436 ft | 409 kts | 215° |
| 2026-05-03 22:09 | 24.83357 | -81.74446 | 36759 ft | 407 kts | 215° |
| 2026-05-03 22:09 | 24.80888 | -81.75966 | 37060 ft | 406 kts | 215° |
| 2026-05-03 22:09 | 24.78422 | -81.77482 | 37344 ft | 405 kts | 214° |
| 2026-05-03 22:10 | 24.73489 | -81.80514 | 37716 ft | 408 kts | 214° |
| 2026-05-03 22:10 | 24.71009 | -81.82038 | 37942 ft | 408 kts | 214° |
| 2026-05-03 22:10 | 24.68528 | -81.83561 | 38023 ft | 408 kts | 214° |
| 2026-05-03 22:11 | 24.63622 | -81.86570 | 38009 ft | 405 kts | 214° |
| 2026-05-03 22:11 | 24.58693 | -81.89592 | 38000 ft | 406 kts | 214° |
| 2026-05-03 22:12 | 24.53774 | -81.92605 | 38001 ft | 406 kts | 214° |
| 2026-05-03 22:12 | 24.49101 | -81.95960 | 37976 ft | 395 kts | 230° |
| 2026-05-03 22:12 | 24.47499 | -81.98376 | 38008 ft | 391 kts | 242° |
| 2026-05-03 22:13 | 24.46174 | -82.00991 | 37989 ft | 393 kts | 243° |
| 2026-05-03 22:13 | 24.43692 | -82.06297 | 37999 ft | 393 kts | 244° |
| 2026-05-03 22:14 | 24.41290 | -82.11685 | 37996 ft | 393 kts | 245° |
| 2026-05-03 22:14 | 24.38918 | -82.17079 | 38001 ft | 393 kts | 245° |
| 2026-05-03 22:15 | 24.36547 | -82.22481 | 38000 ft | 393 kts | 245° |
| 2026-05-03 22:15 | 24.34191 | -82.27845 | 37996 ft | 393 kts | 245° |
| 2026-05-03 22:16 | 24.31816 | -82.33248 | 37999 ft | 393 kts | 245° |
| 2026-05-03 22:16 | 24.29443 | -82.38638 | 37999 ft | 393 kts | 245° |
| 2026-05-03 22:17 | 24.27075 | -82.44012 | 38004 ft | 389 kts | 245° |
| 2026-05-03 22:17 | 24.24725 | -82.49337 | 37998 ft | 388 kts | 245° |
| 2026-05-03 22:18 | 24.22387 | -82.54629 | 37999 ft | 388 kts | 245° |
| 2026-05-03 22:18 | 24.20033 | -82.59953 | 37967 ft | 389 kts | 245° |
| 2026-05-03 22:19 | 24.17658 | -82.65317 | 37994 ft | 394 kts | 245° |
| 2026-05-03 22:19 | 24.15265 | -82.70717 | 37998 ft | 394 kts | 245° |
| 2026-05-03 22:20 | 24.12871 | -82.76108 | 37998 ft | 394 kts | 245° |
| 2026-05-03 22:20 | 24.10495 | -82.81459 | 38001 ft | 391 kts | 245° |
| 2026-05-03 22:21 | 24.08120 | -82.86797 | 38002 ft | 390 kts | 245° |
| 2026-05-03 22:21 | 24.05745 | -82.92128 | 38001 ft | 390 kts | 245° |
| 2026-05-03 22:22 | 24.03365 | -82.97468 | 38001 ft | 390 kts | 245° |
| 2026-05-03 22:22 | 24.01001 | -83.02767 | 38001 ft | 390 kts | 245° |
| 2026-05-03 22:23 | 23.98105 | -83.07780 | 38024 ft | 392 kts | 236° |
| 2026-05-03 22:23 | 23.94861 | -83.12569 | 37998 ft | 392 kts | 236° |
| 2026-05-03 22:24 | 23.91604 | -83.17362 | 37964 ft | 392 kts | 236° |
| 2026-05-03 22:24 | 23.88331 | -83.22170 | 38001 ft | 397 kts | 236° |
| 2026-05-03 22:25 | 23.85051 | -83.26986 | 38001 ft | 397 kts | 236° |
| 2026-05-03 22:25 | 23.81751 | -83.31825 | 38002 ft | 397 kts | 236° |
| 2026-05-03 22:26 | 23.78457 | -83.36653 | 38005 ft | 397 kts | 236° |
| 2026-05-03 22:26 | 23.75152 | -83.41490 | 38005 ft | 397 kts | 236° |
| 2026-05-03 22:27 | 23.71849 | -83.46322 | 38002 ft | 397 kts | 236° |
| 2026-05-03 22:27 | 23.68563 | -83.51122 | 37999 ft | 397 kts | 236° |
| 2026-05-03 22:28 | 23.65266 | -83.55936 | 38008 ft | 396 kts | 236° |
| 2026-05-03 22:28 | 23.61983 | -83.60720 | 38002 ft | 393 kts | 236° |
| 2026-05-03 22:29 | 23.58686 | -83.65522 | 38003 ft | 398 kts | 236° |
| 2026-05-03 22:29 | 23.55387 | -83.70320 | 38005 ft | 398 kts | 236° |
| 2026-05-03 22:30 | 23.52068 | -83.75145 | 38003 ft | 398 kts | 236° |
| 2026-05-03 22:30 | 23.48755 | -83.79955 | 38004 ft | 398 kts | 236° |
| 2026-05-03 22:31 | 23.45434 | -83.84773 | 38002 ft | 398 kts | 236° |
| 2026-05-03 22:31 | 23.42133 | -83.89556 | 38002 ft | 398 kts | 236° |
| 2026-05-03 22:32 | 23.38810 | -83.94368 | 38004 ft | 396 kts | 236° |
| 2026-05-03 22:32 | 23.35525 | -83.99119 | 38004 ft | 395 kts | 236° |
| 2026-05-03 22:33 | 23.32199 | -84.03925 | 38000 ft | 396 kts | 236° |
| 2026-05-03 22:33 | 23.28881 | -84.08717 | 38001 ft | 399 kts | 236° |
| 2026-05-03 22:34 | 23.25557 | -84.13512 | 37994 ft | 399 kts | 236° |
| 2026-05-03 22:34 | 23.22214 | -84.18329 | 38000 ft | 399 kts | 236° |
| 2026-05-03 22:35 | 23.18876 | -84.23134 | 38004 ft | 399 kts | 236° |
| 2026-05-03 22:35 | 23.15530 | -84.27948 | 38001 ft | 399 kts | 236° |
| 2026-05-03 22:36 | 23.12185 | -84.32755 | 38004 ft | 398 kts | 236° |
| 2026-05-03 22:36 | 23.08843 | -84.37553 | 38004 ft | 398 kts | 236° |
| 2026-05-03 22:37 | 23.05529 | -84.42306 | 37994 ft | 398 kts | 236° |
| 2026-05-03 22:37 | 23.02184 | -84.47100 | 38000 ft | 398 kts | 236° |
| 2026-05-03 22:38 | 22.98834 | -84.51898 | 37998 ft | 400 kts | 236° |
| 2026-05-03 22:38 | 22.95462 | -84.56720 | 37997 ft | 401 kts | 236° |
| 2026-05-03 22:39 | 22.92111 | -84.61509 | 37999 ft | 401 kts | 236° |
| 2026-05-03 22:39 | 22.88740 | -84.66322 | 37999 ft | 401 kts | 236° |
| 2026-05-03 22:40 | 22.85368 | -84.71132 | 37998 ft | 400 kts | 236° |
| 2026-05-03 22:40 | 22.82007 | -84.75922 | 37999 ft | 399 kts | 236° |
| 2026-05-03 22:41 | 22.78639 | -84.80717 | 38001 ft | 399 kts | 236° |
| 2026-05-03 22:41 | 22.75278 | -84.85498 | 37998 ft | 400 kts | 236° |
| 2026-05-03 22:42 | 22.71931 | -84.90256 | 37998 ft | 400 kts | 236° |
| 2026-05-03 22:42 | 22.68559 | -84.95044 | 37983 ft | 401 kts | 236° |
| 2026-05-03 22:43 | 22.65167 | -84.99856 | 37997 ft | 402 kts | 236° |
| 2026-05-03 22:43 | 22.61774 | -85.04666 | 37997 ft | 402 kts | 236° |
| 2026-05-03 22:44 | 22.58416 | -85.09489 | 37999 ft | 402 kts | 236° |
| 2026-05-03 22:44 | 22.55073 | -85.14292 | 37999 ft | 402 kts | 236° |
| 2026-05-03 22:45 | 22.51706 | -85.19123 | 37998 ft | 402 kts | 236° |
| 2026-05-03 22:45 | 22.48339 | -85.23952 | 37997 ft | 402 kts | 236° |
| 2026-05-03 22:46 | 22.44973 | -85.28774 | 37999 ft | 402 kts | 236° |
| 2026-05-03 22:46 | 22.41626 | -85.33564 | 37998 ft | 402 kts | 236° |
| 2026-05-03 22:47 | 22.38260 | -85.38378 | 37676 ft | 399 kts | 236° |
| 2026-05-03 22:47 | 22.36590 | -85.40764 | 37032 ft | 398 kts | 236° |
| 2026-05-03 22:47 | 22.34921 | -85.43148 | 36402 ft | 397 kts | 236° |
| 2026-05-03 22:47 | 22.33255 | -85.45527 | 35686 ft | 399 kts | 236° |
| 2026-05-03 22:48 | 22.31572 | -85.47928 | 34929 ft | 402 kts | 236° |
| 2026-05-03 22:48 | 22.29883 | -85.50338 | 34186 ft | 405 kts | 237° |
| 2026-05-03 22:48 | 22.28177 | -85.52769 | 33348 ft | 409 kts | 236° |
| 2026-05-03 22:48 | 22.26448 | -85.55233 | 32473 ft | 414 kts | 236° |
| 2026-05-03 22:49 | 22.24726 | -85.57687 | 31660 ft | 418 kts | 236° |
| 2026-05-03 22:49 | 22.22965 | -85.60205 | 30750 ft | 422 kts | 236° |
| 2026-05-03 22:49 | 22.21186 | -85.62749 | 29868 ft | 427 kts | 236° |
| 2026-05-03 22:49 | 22.19394 | -85.65310 | 28981 ft | 427 kts | 236° |
| 2026-05-03 22:50 | 22.17610 | -85.67857 | 28342 ft | 427 kts | 236° |
| 2026-05-03 22:50 | 22.15808 | -85.70430 | 27722 ft | 431 kts | 235° |
| 2026-05-03 22:50 | 22.14002 | -85.73005 | 27075 ft | 431 kts | 235° |
| 2026-05-03 22:50 | 22.12198 | -85.75578 | 26423 ft | 429 kts | 235° |
| 2026-05-03 22:51 | 22.10408 | -85.78129 | 25783 ft | 424 kts | 235° |
| 2026-05-03 22:51 | 22.08640 | -85.80650 | 25207 ft | 419 kts | 235° |
| 2026-05-03 22:51 | 22.06908 | -85.83114 | 24595 ft | 417 kts | 235° |
| 2026-05-03 22:51 | 22.05160 | -85.85603 | 23983 ft | 416 kts | 235° |
| 2026-05-03 22:52 | 22.03413 | -85.88089 | 23293 ft | 416 kts | 235° |
| 2026-05-03 22:52 | 22.01667 | -85.90571 | 22660 ft | 413 kts | 235° |
| 2026-05-03 22:52 | 21.99958 | -85.93000 | 22432 ft | 401 kts | 235° |
| 2026-05-03 22:52 | 21.98303 | -85.95352 | 22199 ft | 390 kts | 235° |
| 2026-05-03 22:53 | 21.96680 | -85.97637 | 22066 ft | 377 kts | 232° |
| 2026-05-03 22:53 | 21.94783 | -85.99588 | 22018 ft | 378 kts | 224° |
| 2026-05-03 22:53 | 21.92804 | -86.01457 | 22005 ft | 378 kts | 224° |
| 2026-05-03 22:53 | 21.90828 | -86.03325 | 21997 ft | 378 kts | 224° |
| 2026-05-03 22:54 | 21.88874 | -86.05168 | 21985 ft | 378 kts | 224° |
| 2026-05-03 22:54 | 21.86893 | -86.07035 | 21995 ft | 378 kts | 224° |
| 2026-05-03 22:54 | 21.84915 | -86.08898 | 21985 ft | 378 kts | 224° |
| 2026-05-03 22:54 | 21.82932 | -86.10764 | 21996 ft | 378 kts | 224° |
| 2026-05-03 22:55 | 21.80959 | -86.12622 | 21990 ft | 378 kts | 224° |
| 2026-05-03 22:55 | 21.78980 | -86.14482 | 21989 ft | 378 kts | 224° |
| 2026-05-03 22:55 | 21.76996 | -86.16348 | 21984 ft | 378 kts | 224° |
| 2026-05-03 22:55 | 21.75054 | -86.18171 | 21991 ft | 363 kts | 225° |
| 2026-05-03 22:56 | 21.73216 | -86.19898 | 21987 ft | 349 kts | 225° |
| 2026-05-03 22:56 | 21.71418 | -86.21588 | 21989 ft | 340 kts | 225° |
| 2026-05-03 22:56 | 21.69642 | -86.23255 | 21990 ft | 339 kts | 225° |
| 2026-05-03 22:56 | 21.67869 | -86.24920 | 21983 ft | 338 kts | 225° |
| 2026-05-03 22:57 | 21.66113 | -86.26567 | 21747 ft | 334 kts | 225° |
| 2026-05-03 22:57 | 21.64359 | -86.28213 | 21314 ft | 334 kts | 225° |
| 2026-05-03 22:57 | 21.62620 | -86.29845 | 20950 ft | 332 kts | 225° |
| 2026-05-03 22:57 | 21.60936 | -86.31526 | 20567 ft | 328 kts | 233° |
| 2026-05-03 22:58 | 21.59753 | -86.33577 | 20140 ft | 324 kts | 246° |
| 2026-05-03 22:58 | 21.58682 | -86.35757 | 19446 ft | 336 kts | 244° |
| 2026-05-03 22:58 | 21.57552 | -86.37961 | 19000 ft | 337 kts | 243° |
| 2026-05-03 22:58 | 21.56424 | -86.40137 | 18590 ft | 338 kts | 243° |
| 2026-05-03 22:59 | 21.55277 | -86.42334 | 18182 ft | 337 kts | 243° |
| 2026-05-03 22:59 | 21.54132 | -86.44522 | 17730 ft | 332 kts | 243° |
| 2026-05-03 22:59 | 21.53008 | -86.46665 | 17299 ft | 327 kts | 243° |
| 2026-05-03 22:59 | 21.51902 | -86.48775 | 16896 ft | 321 kts | 243° |
| 2026-05-03 23:00 | 21.50821 | -86.50833 | 16506 ft | 311 kts | 243° |
| 2026-05-03 23:00 | 21.49778 | -86.52819 | 16135 ft | 302 kts | 243° |
| 2026-05-03 23:00 | 21.48762 | -86.54754 | 15655 ft | 296 kts | 243° |
| 2026-05-03 23:00 | 21.47748 | -86.56681 | 15087 ft | 295 kts | 243° |
| 2026-05-03 23:01 | 21.46740 | -86.58597 | 14527 ft | 294 kts | 243° |
| 2026-05-03 23:01 | 21.45747 | -86.60484 | 13978 ft | 294 kts | 243° |
| 2026-05-03 23:01 | 21.44743 | -86.62390 | 13402 ft | 293 kts | 243° |
| 2026-05-03 23:01 | 21.43742 | -86.64289 | 12802 ft | 292 kts | 243° |
| 2026-05-03 23:02 | 21.42745 | -86.66181 | 12228 ft | 291 kts | 243° |
| 2026-05-03 23:02 | 21.41753 | -86.68065 | 11662 ft | 289 kts | 243° |
| 2026-05-03 23:02 | 21.40763 | -86.69941 | 11108 ft | 288 kts | 243° |
| 2026-05-03 23:02 | 21.39778 | -86.71809 | 10566 ft | 287 kts | 242° |
| 2026-05-03 23:03 | 21.38797 | -86.73668 | 10037 ft | 286 kts | 242° |
| 2026-05-03 23:03 | 21.37819 | -86.75520 | 9472 ft | 284 kts | 242° |
| 2026-05-03 23:03 | 21.36863 | -86.77331 | 8905 ft | 283 kts | 242° |
| 2026-05-03 23:03 | 21.35889 | -86.79175 | 8373 ft | 288 kts | 242° |
| 2026-05-03 23:04 | 21.34898 | -86.81051 | 7791 ft | 288 kts | 242° |
| 2026-05-03 23:04 | 21.33911 | -86.82917 | 7236 ft | 287 kts | 241° |
| 2026-05-03 23:04 | 21.32932 | -86.84770 | 6707 ft | 285 kts | 241° |
| 2026-05-03 23:04 | 21.31959 | -86.86609 | 6158 ft | 283 kts | 241° |
| 2026-05-03 23:05 | 21.30994 | -86.88434 | 5676 ft | 278 kts | 241° |
| 2026-05-03 23:05 | 21.30052 | -86.90213 | 5299 ft | 271 kts | 241° |
| 2026-05-03 23:05 | 21.29136 | -86.91943 | 4935 ft | 263 kts | 241° |
| 2026-05-03 23:05 | 21.28253 | -86.93611 | 4571 ft | 258 kts | 241° |
| 2026-05-03 23:06 | 21.27377 | -86.95265 | 4198 ft | 252 kts | 241° |
| 2026-05-03 23:06 | 21.26523 | -86.96877 | 3836 ft | 246 kts | 241° |
| 2026-05-03 23:06 | 21.25685 | -86.98458 | 3474 ft | 241 kts | 241° |
| 2026-05-03 23:06 | 21.24870 | -86.99995 | 3197 ft | 236 kts | 241° |
| 2026-05-03 23:07 | 21.23936 | -87.01402 | 3029 ft | 229 kts | 220° |
| 2026-05-03 23:07 | 21.22649 | -87.02352 | 3039 ft | 224 kts | 214° |
| 2026-05-03 23:07 | 21.21355 | -87.03288 | 3030 ft | 225 kts | 214° |
| 2026-05-03 23:07 | 21.20070 | -87.04210 | 3025 ft | 225 kts | 214° |
| 2026-05-03 23:08 | 21.18764 | -87.05132 | 3011 ft | 225 kts | 210° |
| 2026-05-03 23:08 | 21.17287 | -87.05510 | 2938 ft | 220 kts | 170° |
| 2026-05-03 23:08 | 21.15954 | -87.04789 | 2949 ft | 218 kts | 131° |
| 2026-05-03 23:08 | 21.15061 | -87.03464 | 3015 ft | 222 kts | 123° |
| 2026-05-03 23:09 | 21.14185 | -87.02105 | 2934 ft | 224 kts | 123° |
| 2026-05-03 23:09 | 21.13320 | -87.00741 | 2739 ft | 220 kts | 123° |
| 2026-05-03 23:09 | 21.12477 | -86.99385 | 2443 ft | 217 kts | 122° |
| 2026-05-03 23:09 | 21.11653 | -86.98060 | 2157 ft | 216 kts | 121° |
| 2026-05-03 23:10 | 21.10826 | -86.96730 | 1872 ft | 214 kts | 122° |
| 2026-05-03 23:10 | 21.10000 | -86.95405 | 1603 ft | 214 kts | 122° |
| 2026-05-03 23:10 | 21.09177 | -86.94081 | 1291 ft | 211 kts | 122° |
| 2026-05-03 23:10 | 21.08402 | -86.92839 | 1029 ft | 191 kts | 122° |
| 2026-05-03 23:11 | 21.07701 | -86.91715 | 834 ft | 170 kts | 122° |
| 2026-05-03 23:11 | 21.07092 | -86.90734 | 662 ft | 148 kts | 123° |
| 2026-05-03 23:11 | 21.06537 | -86.89843 | 460 ft | 141 kts | 124° |
| 2026-05-03 23:11 | 21.05995 | -86.88969 | 263 ft | 141 kts | 124° |
| 2026-05-03 23:12 | 21.05449 | -86.88103 | 83 ft | 140 kts | 123° |
| 2026-05-03 23:12 | 21.04958 | -86.87297 | 25 ft | 103 kts | 124° |
| 2026-05-03 23:12 | 21.04633 | -86.86796 | 24 ft | 83 kts | 124° |
| 2026-05-03 23:12 | 21.04341 | -86.86412 | 22 ft | 43 kts | 153° |
| 2026-05-03 23:13 | 21.04219 | -86.86346 | 21 ft | 0 kts | 154° |
| 2026-05-03 23:13 | 21.04186 | -86.86329 | 21 ft | 3 kts | 154° |
| 2026-05-03 23:13 | 21.04163 | -86.86320 | 22 ft | 5 kts | 173° |
| 2026-05-03 23:13 | 21.04151 | -86.86350 | 21 ft | 11 kts | 300° |
| 2026-05-03 23:14 | 21.04210 | -86.86447 | 21 ft | 19 kts | 303° |
| 2026-05-03 23:14 | 21.04286 | -86.86564 | 23 ft | 21 kts | 303° |
| 2026-05-03 23:14 | 21.04378 | -86.86714 | 22 ft | 13 kts | 303° |
| 2026-05-03 23:14 | 21.04447 | -86.86826 | 22 ft | 25 kts | 304° |
| 2026-05-03 23:15 | 21.04515 | -86.86935 | 23 ft | 13 kts | 303° |
| 2026-05-03 23:15 | 21.04570 | -86.87025 | 23 ft | 17 kts | 304° |
| 2026-05-03 23:15 | 21.04648 | -86.87149 | 23 ft | 23 kts | 303° |
| 2026-05-03 23:15 | 21.04745 | -86.87304 | 27 ft | 16 kts | 303° |
| 2026-05-03 23:16 | 21.04836 | -86.87451 | 24 ft | 30 kts | 304° |
| 2026-05-03 23:16 | 21.04918 | -86.87580 | 25 ft | 21 kts | 304° |
| 2026-05-03 23:16 | 21.05017 | -86.87735 | 26 ft | 23 kts | 306° |
| 2026-05-03 23:16 | 21.05095 | -86.87850 | 26 ft | 19 kts | 303° |
| 2026-05-03 23:17 | 21.05173 | -86.87987 | 27 ft | 22 kts | 301° |
| 2026-05-03 23:17 | 21.05209 | -86.88057 | 27 ft | 13 kts | 280° |
| 2026-05-03 23:17 | 21.05161 | -86.88133 | 27 ft | 14 kts | 213° |
| 2026-05-03 23:17 | 21.05075 | -86.88193 | 27 ft | 21 kts | 213° |
| 2026-05-03 23:18 | 21.05007 | -86.88242 | 27 ft | 12 kts | 213° |
| 2026-05-03 23:18 | 21.04943 | -86.88287 | 27 ft | 7 kts | 213° |
| 2026-05-03 23:18 | 21.04912 | -86.88309 | 27 ft | 0 kts | 213° |
| 2026-05-03 23:18 | 21.04882 | -86.88322 | 27 ft | 8 kts | 187° |
| 2026-05-03 23:19 | 21.04860 | -86.88319 | 27 ft | 3 kts | 160° |
| 2026-05-03 23:19 | 21.04842 | -86.88308 | 27 ft | 1 kts | 147° |
| 2026-05-03 23:19 | 21.04827 | -86.88297 | 27 ft | 2 kts | 144° |
| 2026-05-03 23:19 | 21.04817 | -86.88288 | 27 ft | 2 kts | 141° |
| 2026-05-03 23:20 | 21.04808 | -86.88281 | 26 ft | 1 kts | 140° |
| 2026-05-03 23:20 | 21.04806 | -86.88278 | 26 ft | 0 kts | 140° |
| 2026-05-03 23:20 | 21.04804 | -86.88277 | 26 ft | 0 kts | 141° |
| 2026-05-03 23:20 | 21.04797 | -86.88271 | 26 ft | 2 kts | 141° |